createdAt,value
2023-03-23T15:58:54.878Z,15.54
2023-03-23T16:01:28.546Z,15.23
2023-03-23T16:04:10.397Z,14.78
2023-03-23T16:06:44.733Z,14.58
2023-03-23T16:09:21.906Z,14.37
2023-03-23T16:11:52.289Z,14.16
2023-03-23T16:14:21.185Z,13.94
2023-03-23T16:16:53.177Z,13.16
2023-03-23T16:19:31.198Z,13.62
2023-03-23T16:22:00.209Z,13.58
2023-03-23T16:24:28.873Z,13.44
2023-03-23T16:26:57.574Z,13.29
2023-03-23T16:32:00.359Z,13.14
2023-03-23T16:34:50.103Z,12.98
2023-03-23T16:37:20.938Z,12.85
2023-03-23T16:39:51.640Z,12.75
2023-03-23T16:42:24.806Z,12.72
2023-03-23T16:45:18.189Z,12.59
2023-03-23T16:47:47.472Z,12.53
2023-03-23T16:50:21.856Z,12.41
2023-03-23T16:52:50.746Z,12.40
2023-03-23T16:55:21.388Z,12.27
2023-03-23T16:57:54.155Z,12.14
2023-03-23T17:00:23.441Z,12.12
2023-03-23T17:02:53.894Z,12.03
2023-03-23T17:05:25.083Z,12.02
2023-03-23T17:07:58.950Z,11.85
2023-03-23T17:10:33.123Z,11.84
2023-03-23T17:13:02.239Z,11.82
2023-03-23T17:15:31.104Z,11.72
2023-03-23T17:17:59.972Z,11.67
2023-03-23T17:20:28.726Z,11.55
2023-03-23T17:22:57.529Z,11.34
2023-03-23T17:25:32.702Z,11.43
2023-03-23T17:28:05.399Z,11.40
2023-03-23T17:30:32.740Z,11.28
2023-03-23T17:33:01.542Z,11.31
2023-03-23T17:35:30.677Z,11.35
2023-03-23T17:37:59.858Z,11.30
2023-03-23T17:40:30.059Z,11.34
2023-03-23T17:42:58.806Z,11.24
2023-03-23T17:45:27.559Z,11.19
2023-03-23T17:47:58.103Z,11.17
2023-03-23T17:50:27.069Z,11.06
2023-03-23T17:52:57.177Z,11.04
2023-03-23T17:55:26.005Z,10.89
2023-03-23T17:57:56.378Z,10.96
2023-03-23T18:00:26.718Z,10.86
2023-03-23T18:02:56.769Z,10.88
2023-03-23T18:05:29.678Z,10.79
2023-03-23T18:07:58.808Z,10.83
2023-03-23T18:10:27.647Z,10.78
2023-03-23T18:12:56.877Z,10.83
2023-03-23T18:15:28.191Z,10.85
2023-03-23T18:17:59.724Z,10.85
2023-03-23T18:20:31.413Z,10.82
2023-03-23T18:23:05.526Z,10.63
2023-03-23T18:25:46.143Z,10.75
2023-03-23T18:28:29.649Z,10.55
2023-03-23T18:31:12.230Z,10.56
2023-03-23T18:36:40.941Z,10.60
2023-03-23T18:39:17.619Z,10.48
2023-03-23T18:41:44.056Z,10.47
2023-03-23T18:44:16.716Z,10.44
2023-03-23T18:46:54.699Z,10.43
2023-03-23T18:49:34.996Z,10.48
2023-03-23T18:52:04.706Z,10.48
2023-03-23T18:54:54.674Z,10.41
2023-03-23T18:57:10.049Z,10.34
2023-03-23T18:59:45.711Z,10.30
2023-03-23T19:02:25.319Z,10.08
2023-03-23T19:05:02.313Z,9.99
2023-03-23T19:07:37.922Z,9.91
2023-03-23T19:12:57.698Z,9.97
2023-03-23T19:15:26.413Z,9.94
2023-03-23T19:17:58.144Z,9.94
2023-03-23T19:20:54.920Z,9.89
2023-03-23T19:22:57.945Z,9.89
2023-03-23T19:25:29.757Z,9.93
2023-03-23T19:28:45.423Z,9.87
2023-03-23T19:30:40.888Z,9.79
2023-03-23T19:33:14.339Z,9.70
2023-03-23T19:35:49.094Z,9.60
2023-03-23T19:38:23.491Z,9.51
2023-03-23T19:41:03.472Z,9.44
2023-03-23T19:43:42.096Z,9.29
2023-03-23T19:46:43.184Z,9.15
2023-03-23T19:49:22.146Z,9.05
2023-03-23T19:54:58.728Z,8.93
2023-03-23T19:57:30.743Z,8.85
2023-03-23T20:00:06.634Z,8.77
2023-03-23T20:02:46.514Z,8.73
2023-03-23T20:05:18.834Z,8.71
2023-03-23T20:08:02.709Z,8.68
2023-03-23T20:10:42.534Z,8.65
2023-03-23T20:13:14.403Z,8.68
2023-03-23T20:15:43.889Z,8.70
2023-03-23T20:18:16.948Z,8.75
2023-03-23T20:20:50.003Z,8.67
2023-03-23T20:23:18.690Z,8.66
2023-03-23T20:25:46.951Z,8.72
2023-03-23T20:28:16.669Z,8.77
2023-03-23T20:30:49.335Z,8.75
2023-03-23T20:33:25.388Z,8.65
2023-03-23T20:35:58.402Z,8.60
2023-03-23T20:38:29.693Z,8.65
2023-03-23T20:41:06.489Z,8.61
2023-03-23T20:43:38.465Z,8.57
2023-03-23T20:46:17.530Z,8.59
2023-03-23T20:48:48.259Z,8.64
2023-03-23T20:51:22.095Z,8.56
2023-03-23T20:56:51.540Z,8.43
2023-03-23T21:01:01.223Z,8.37
2023-03-23T21:02:33.471Z,8.34
2023-03-23T21:05:06.017Z,8.35
2023-03-23T21:07:40.989Z,8.29
2023-03-23T21:10:28.427Z,8.26
2023-03-23T21:12:57.349Z,8.21
2023-03-23T21:15:29.489Z,8.14
2023-03-23T21:18:08.800Z,8.15
2023-03-23T21:20:49.882Z,8.06
2023-03-23T21:23:43.144Z,7.98
2023-03-23T21:29:14.143Z,7.94
2023-03-23T21:31:46.143Z,7.85
2023-03-23T21:34:23.390Z,7.90
2023-03-23T21:36:55.628Z,7.80
2023-03-23T21:39:29.913Z,7.85
2023-03-23T21:42:50.900Z,7.73
2023-03-23T21:44:51.218Z,7.65
2023-03-23T21:47:36.082Z,7.64
2023-03-23T21:50:07.410Z,7.77
2023-03-23T21:52:38.206Z,7.71
2023-03-23T21:55:11.921Z,7.72
2023-03-23T21:57:45.102Z,7.72
2023-03-23T22:00:21.529Z,7.71
2023-03-23T22:02:56.116Z,7.76
2023-03-23T22:05:25.007Z,7.76
2023-03-23T22:07:54.387Z,7.65
2023-03-23T22:10:23.399Z,7.64
2023-03-23T22:12:54.992Z,7.76
2023-03-23T22:15:24.570Z,7.74
2023-03-23T22:17:53.356Z,7.70
2023-03-23T22:20:22.213Z,7.76
2023-03-23T22:22:54.470Z,7.79
2023-03-23T22:25:24.393Z,7.83
2023-03-23T22:27:53.157Z,7.72
2023-03-23T22:30:21.957Z,7.71
2023-03-23T22:32:50.918Z,7.70
2023-03-23T22:35:19.787Z,7.73
2023-03-23T22:37:48.772Z,7.66
2023-03-23T22:40:21.432Z,7.67
2023-03-23T22:43:01.052Z,7.58
2023-03-23T22:45:34.455Z,7.53
2023-03-23T22:48:06.647Z,7.53
2023-03-23T22:50:35.795Z,7.39
2023-03-23T22:53:05.917Z,7.36
2023-03-23T22:55:34.830Z,7.25
2023-03-23T22:58:05.231Z,7.24
2023-03-23T23:00:38.513Z,7.25
2023-03-23T23:03:08.270Z,7.20
2023-03-23T23:05:40.281Z,7.24
2023-03-23T23:08:14.158Z,7.18
2023-03-23T23:10:46.374Z,7.13
2023-03-23T23:13:15.794Z,7.15
2023-03-23T23:15:47.456Z,7.10
2023-03-23T23:18:20.420Z,6.98
2023-03-23T23:20:57.837Z,6.97
2023-03-23T23:23:27.637Z,6.88
2023-03-23T23:26:02.696Z,6.89
2023-03-23T23:28:32.951Z,6.71
2023-03-23T23:31:02.039Z,6.62
2023-03-23T23:33:31.001Z,6.54
2023-03-23T23:35:59.798Z,6.45
2023-03-23T23:38:28.619Z,6.51
2023-03-23T23:40:57.843Z,6.44
2023-03-23T23:43:26.641Z,6.39
2023-03-23T23:45:55.419Z,6.29
2023-03-23T23:48:25.682Z,6.33
2023-03-23T23:50:54.393Z,6.30
2023-03-23T23:53:24.792Z,6.23
2023-03-23T23:55:54.123Z,6.21
2023-03-23T23:58:24.138Z,6.22
